Time;durP1;ratioP1;P1;durP2;ratioP2;P2;SDS_P1;SDS_P2;PMS_P1;PMS_P2;Temp;Humidity;BMP_temperature;BMP_pressure;BME280_temperature;BME280_humidity;BME280_pressure;Samples;Min_cycle;Max_cycle;Signal;HPM_P1;HPM_P2
2022/07/02 00:02:00;;;;;;;2.35;0.90;;;17.00;94.70;;;;;;4918410;29;20056;-76
2022/07/02 00:04:30;;;;;;;2.50;1.15;;;16.90;94.80;;;;;;4918874;29;20028;-76
2022/07/02 00:06:56;;;;;;;2.17;1.00;;;16.90;95.00;;;;;;4917977;29;20013;-76
2022/07/02 00:09:22;;;;;;;1.65;0.95;;;16.90;95.00;;;;;;4910810;29;20037;-75
2022/07/02 00:11:49;;;;;;;2.92;1.20;;;16.90;95.20;;;;;;4899424;29;20076;-75
2022/07/02 00:14:15;;;;;;;4.13;1.52;;;16.80;95.10;;;;;;4899185;29;20052;-75
2022/07/02 00:16:47;;;;;;;3.70;1.40;;;16.80;95.50;;;;;;4899821;29;20100;-76
2022/07/02 00:19:16;;;;;;;4.65;1.05;;;16.80;95.50;;;;;;4899245;29;20056;-75
2022/07/02 00:21:41;;;;;;;3.28;1.55;;;16.80;95.50;;;;;;4911807;29;20042;-76
2022/07/02 00:24:08;;;;;;;6.40;1.40;;;16.80;95.70;;;;;;4918098;29;20484;-76
2022/07/02 00:26:38;;;;;;;5.40;1.60;;;16.90;95.90;;;;;;4918119;29;20026;-76
2022/07/02 00:29:24;;;;;;;5.18;1.63;;;16.80;95.80;;;;;;4906779;29;20029;-75
2022/07/02 00:31:50;;;;;;;4.50;1.63;;;16.80;96.30;;;;;;4898430;29;20496;-76
2022/07/02 00:34:17;;;;;;;12.50;2.47;;;16.80;96.00;;;;;;4898715;29;20037;-76
2022/07/02 00:36:44;;;;;;;2.90;1.40;;;16.70;96.80;;;;;;4898835;29;20025;-76
2022/07/02 00:39:10;;;;;;;4.35;1.77;;;16.70;97.10;;;;;;4898776;29;20024;-76
2022/07/02 00:41:37;;;;;;;3.95;1.20;;;16.50;97.30;;;;;;4898846;29;20017;-75
2022/07/02 00:44:06;;;;;;;4.97;1.40;;;16.50;97.10;;;;;;4906346;29;20068;-75
2022/07/02 00:46:34;;;;;;;10.00;1.20;;;16.50;97.30;;;;;;4910114;29;20021;-75
2022/07/02 00:49:00;;;;;;;3.03;1.23;;;16.50;97.00;;;;;;4898677;29;20056;-75
2022/07/02 00:51:27;;;;;;;3.55;1.40;;;16.50;97.20;;;;;;4898573;29;20100;-76
2022/07/02 00:53:53;;;;;;;4.78;1.40;;;16.40;96.80;;;;;;4899274;29;20025;-75
2022/07/02 00:56:20;;;;;;;4.38;1.17;;;16.40;96.90;;;;;;4915327;29;20021;-75
2022/07/02 00:58:46;;;;;;;1.77;1.08;;;16.50;97.40;;;;;;4916753;29;20029;-76
2022/07/02 01:01:12;;;;;;;4.55;1.60;;;16.40;97.40;;;;;;4917689;29;20036;-75
2022/07/02 01:03:39;;;;;;;3.42;1.10;;;16.40;97.80;;;;;;4917004;29;20079;-76
2022/07/02 01:06:05;;;;;;;3.53;1.52;;;16.30;98.30;;;;;;4917419;29;20039;-75
2022/07/02 01:11:26;;;;;;;6.50;1.60;;;16.20;98.00;;;;;;4910566;29;20080;-76
2022/07/02 01:13:53;;;;;;;4.35;1.10;;;16.30;97.90;;;;;;4898529;29;20048;-75
2022/07/02 01:16:19;;;;;;;4.13;0.90;;;16.20;97.80;;;;;;4896277;29;20033;-76
2022/07/02 01:18:45;;;;;;;3.42;0.95;;;16.20;97.80;;;;;;4895878;29;20113;-76
2022/07/02 01:21:11;;;;;;;6.10;1.42;;;16.10;98.30;;;;;;4895866;29;20072;-76
2022/07/02 01:23:36;;;;;;;3.47;1.10;;;16.00;98.30;;;;;;4896289;29;20029;-75
2022/07/02 01:26:02;;;;;;;3.72;1.10;;;16.00;98.30;;;;;;4896304;29;20044;-76
2022/07/02 01:28:28;;;;;;;4.75;1.10;;;16.10;98.40;;;;;;4895679;29;20047;-75
2022/07/02 01:30:53;;;;;;;1.50;0.70;;;16.00;97.90;;;;;;4895907;29;20111;-76
2022/07/02 01:33:19;;;;;;;4.43;0.90;;;16.00;98.40;;;;;;4895398;29;20507;-76
2022/07/02 01:35:45;;;;;;;5.00;1.15;;;15.80;98.20;;;;;;4896292;29;20072;-76
2022/07/02 01:38:10;;;;;;;5.38;0.82;;;15.90;98.50;;;;;;4896807;29;20084;-76
2022/07/02 01:40:36;;;;;;;4.40;1.05;;;15.90;99.00;;;;;;4914480;29;20436;-76
2022/07/02 01:43:02;;;;;;;5.15;1.23;;;16.00;98.50;;;;;;4914749;29;20083;-76
2022/07/02 01:45:28;;;;;;;3.95;1.10;;;15.90;98.50;;;;;;4914245;29;20043;-76
2022/07/02 01:47:53;;;;;;;3.15;1.48;;;15.90;98.50;;;;;;4913683;29;20040;-76
2022/07/02 01:50:19;;;;;;;3.22;1.25;;;15.90;98.90;;;;;;4916446;29;20036;-76
2022/07/02 01:52:45;;;;;;;3.53;0.93;;;15.90;99.20;;;;;;4916712;29;20051;-75
2022/07/02 01:55:10;;;;;;;2.55;1.02;;;15.80;99.10;;;;;;4898054;29;20064;-76
2022/07/02 01:57:36;;;;;;;4.50;1.20;;;15.80;99.30;;;;;;4897355;29;20044;-75
2022/07/02 02:00:07;;;;;;;6.32;1.13;;;15.70;99.50;;;;;;4897873;29;20021;-76
2022/07/02 02:02:33;;;;;;;3.28;0.80;;;15.70;99.30;;;;;;4897311;29;20025;-75
2022/07/02 02:04:59;;;;;;;4.43;1.30;;;15.50;99.20;;;;;;4897564;29;20645;-76
2022/07/02 02:07:25;;;;;;;3.10;0.80;;;15.50;99.40;;;;;;4897307;29;20503;-76
2022/07/02 02:09:51;;;;;;;5.05;1.23;;;15.60;99.50;;;;;;4913428;29;20437;-75
2022/07/02 02:12:17;;;;;;;4.90;0.95;;;15.60;99.50;;;;;;4904491;29;20060;-75
2022/07/02 02:14:42;;;;;;;2.88;0.93;;;15.60;99.80;;;;;;4897201;29;20157;-75
2022/07/02 02:17:08;;;;;;;3.42;0.98;;;15.70;99.90;;;;;;4897237;29;20477;-75
2022/07/02 02:19:34;;;;;;;7.35;1.15;;;15.50;99.70;;;;;;4897058;29;20528;-75
2022/07/02 02:21:59;;;;;;;4.28;0.98;;;15.50;99.60;;;;;;4897258;29;20021;-76
2022/07/02 02:24:25;;;;;;;10.25;1.27;;;15.50;99.90;;;;;;4897027;29;20108;-75
2022/07/02 02:26:51;;;;;;;5.05;0.80;;;15.50;99.80;;;;;;4897157;29;20032;-75
2022/07/02 02:29:17;;;;;;;3.05;0.90;;;15.40;99.80;;;;;;4897356;29;20052;-76
2022/07/02 02:31:42;;;;;;;2.85;0.95;;;15.40;99.50;;;;;;4897875;29;20103;-75
2022/07/02 02:34:08;;;;;;;4.43;1.23;;;15.40;99.90;;;;;;4916089;29;20465;-76
2022/07/02 02:36:34;;;;;;;2.58;0.90;;;15.40;99.90;;;;;;4899885;29;20043;-76
2022/07/02 02:39:00;;;;;;;2.80;1.00;;;15.40;99.90;;;;;;4897329;29;20024;-76
2022/07/02 02:41:25;;;;;;;3.45;2.22;;;15.30;99.90;;;;;;4896918;29;20032;-76
2022/07/02 02:43:51;;;;;;;5.03;1.65;;;15.30;99.90;;;;;;4896287;29;20034;-76
2022/07/02 02:46:17;;;;;;;5.57;1.10;;;15.30;99.90;;;;;;4909887;29;20068;-76
2022/07/02 02:48:43;;;;;;;4.20;1.48;;;15.20;99.90;;;;;;4915623;29;20457;-75
2022/07/02 02:51:13;;;;;;;2.45;1.10;;;15.20;99.90;;;;;;4915846;29;20043;-76
2022/07/02 02:53:42;;;;;;;3.17;1.40;;;15.30;99.90;;;;;;4906980;29;20084;-75
2022/07/02 02:56:08;;;;;;;3.53;1.13;;;15.30;99.90;;;;;;4897228;29;20417;-75
2022/07/02 02:58:34;;;;;;;2.85;1.02;;;15.20;99.90;;;;;;4896626;29;20474;-76
2022/07/02 03:01:00;;;;;;;3.08;1.10;;;15.20;99.90;;;;;;4896291;29;20043;-75
2022/07/02 03:03:25;;;;;;;2.13;1.08;;;15.20;99.90;;;;;;4897014;29;20025;-75
2022/07/02 03:05:51;;;;;;;2.08;0.93;;;15.20;99.90;;;;;;4896732;29;20085;-76
2022/07/02 03:08:17;;;;;;;3.92;1.10;;;15.20;99.90;;;;;;4899960;29;20033;-75
2022/07/02 03:10:42;;;;;;;4.80;1.52;;;15.30;99.90;;;;;;4895972;29;20056;-75
2022/07/02 03:13:08;;;;;;;3.58;1.30;;;15.10;99.90;;;;;;4896490;29;20044;-75
2022/07/02 03:15:34;;;;;;;5.75;1.17;;;15.10;99.90;;;;;;4896159;29;20044;-76
2022/07/02 03:18:00;;;;;;;2.78;1.02;;;15.00;99.90;;;;;;4897003;29;20029;-75
2022/07/02 03:20:26;;;;;;;1.92;1.13;;;15.00;99.90;;;;;;4896470;29;20039;-75
2022/07/02 03:22:51;;;;;;;4.03;1.20;;;14.90;99.90;;;;;;4896627;29;20103;-76
2022/07/02 03:25:17;;;;;;;3.05;1.30;;;14.90;99.90;;;;;;4896505;29;20045;-76
2022/07/02 03:27:43;;;;;;;5.05;1.20;;;15.00;99.90;;;;;;4896245;29;20028;-75
2022/07/02 03:30:09;;;;;;;2.22;1.02;;;15.00;99.90;;;;;;4896326;29;20035;-76
2022/07/02 03:32:34;;;;;;;3.97;1.20;;;15.00;99.90;;;;;;4906504;29;20028;-75
2022/07/02 03:35:00;;;;;;;3.15;1.20;;;14.80;99.90;;;;;;4915364;29;20028;-76
2022/07/02 03:37:28;;;;;;;3.70;1.38;;;14.80;99.90;;;;;;4915409;29;20028;-76
2022/07/02 03:39:54;;;;;;;4.93;1.15;;;14.90;99.90;;;;;;4915021;29;20444;-76
2022/07/02 03:42:20;;;;;;;3.05;1.30;;;14.80;99.90;;;;;;4915232;29;20051;-76
2022/07/02 03:44:46;;;;;;;2.75;1.20;;;14.80;99.90;;;;;;4914834;29;20025;-76
2022/07/02 03:47:11;;;;;;;5.45;1.27;;;14.80;99.90;;;;;;4914583;29;20119;-76
2022/07/02 03:49:37;;;;;;;2.50;1.15;;;14.80;99.90;;;;;;4914965;29;20091;-76
2022/07/02 03:52:03;;;;;;;3.55;1.10;;;14.80;99.90;;;;;;4915712;29;20374;-76
2022/07/02 03:54:29;;;;;;;5.25;1.35;;;14.80;99.90;;;;;;4897945;29;20161;-76
2022/07/02 03:56:55;;;;;;;2.45;1.30;;;14.80;99.90;;;;;;4897154;29;20111;-76
2022/07/02 03:59:20;;;;;;;2.53;1.00;;;14.80;99.90;;;;;;4894933;29;20039;-76
2022/07/02 04:01:46;;;;;;;4.40;1.10;;;14.70;99.90;;;;;;4896324;29;20028;-76
2022/07/02 04:04:12;;;;;;;3.00;1.23;;;14.70;99.90;;;;;;4896062;29;20039;-75
2022/07/02 04:06:37;;;;;;;3.15;1.10;;;14.70;99.90;;;;;;4898764;29;20021;-76
2022/07/02 04:09:03;;;;;;;4.00;1.40;;;14.70;99.90;;;;;;4899562;29;20404;-75
2022/07/02 04:11:29;;;;;;;2.78;1.20;;;14.70;99.90;;;;;;4899066;29;20470;-76
2022/07/02 04:13:54;;;;;;;2.90;1.10;;;14.70;99.90;;;;;;4899463;29;20115;-76
2022/07/02 04:16:20;;;;;;;1.83;1.13;;;14.60;99.90;;;;;;4899489;29;20025;-76
2022/07/02 04:18:46;;;;;;;4.28;1.48;;;14.50;99.90;;;;;;4899391;29;20035;-76
2022/07/02 04:21:12;;;;;;;1.88;1.15;;;14.50;99.90;;;;;;4899669;29;20400;-76
2022/07/02 04:23:38;;;;;;;1.95;1.20;;;14.60;99.90;;;;;;4899096;29;20028;-75
2022/07/02 04:26:05;;;;;;;3.35;1.40;;;14.50;99.90;;;;;;4899622;29;20021;-75
2022/07/02 04:28:31;;;;;;;5.03;1.65;;;14.50;99.90;;;;;;4899068;29;20032;-76
2022/07/02 04:30:57;;;;;;;2.75;1.13;;;14.40;99.90;;;;;;4899181;29;20424;-75
2022/07/02 04:33:23;;;;;;;4.50;1.30;;;14.50;99.90;;;;;;4899398;29;20032;-75
2022/07/02 04:35:48;;;;;;;5.00;1.17;;;14.60;99.90;;;;;;4898780;29;20041;-75
2022/07/02 04:38:14;;;;;;;8.20;1.38;;;14.50;99.90;;;;;;4899071;29;20064;-75
2022/07/02 04:40:40;;;;;;;3.28;1.25;;;14.60;99.90;;;;;;4899098;29;20028;-75
2022/07/02 04:43:05;;;;;;;4.93;1.23;;;14.50;99.90;;;;;;4898649;29;20075;-75
2022/07/02 04:45:31;;;;;;;8.15;1.70;;;14.50;99.90;;;;;;4898999;29;20061;-75
2022/07/02 04:47:56;;;;;;;5.20;1.00;;;14.60;99.90;;;;;;4898789;29;20107;-75
2022/07/02 04:50:22;;;;;;;3.95;1.13;;;14.60;99.90;;;;;;4899245;29;20040;-75
2022/07/02 04:52:48;;;;;;;4.32;1.33;;;14.60;99.90;;;;;;4901252;29;20051;-75
2022/07/02 04:55:14;;;;;;;3.38;1.48;;;14.50;99.90;;;;;;4916129;29;20489;-75
2022/07/02 04:57:40;;;;;;;3.70;1.52;;;14.60;99.90;;;;;;4909619;29;20080;-75
2022/07/02 05:00:06;;;;;;;2.90;1.42;;;14.60;99.90;;;;;;4913051;29;20059;-75
2022/07/02 05:02:33;;;;;;;6.07;1.02;;;14.70;99.90;;;;;;4899267;29;20505;-76
2022/07/02 05:04:59;;;;;;;3.33;1.23;;;14.60;99.90;;;;;;4909158;29;20035;-75
2022/07/02 05:07:25;;;;;;;4.47;1.60;;;14.50;99.90;;;;;;4917656;29;20032;-75
2022/07/02 05:09:50;;;;;;;2.75;1.17;;;14.50;99.90;;;;;;4916745;29;20429;-76
2022/07/02 05:12:16;;;;;;;4.35;1.50;;;14.60;99.90;;;;;;4905895;29;20060;-75
2022/07/02 05:14:42;;;;;;;5.75;1.70;;;14.70;99.90;;;;;;4898312;29;20124;-75
2022/07/02 05:17:08;;;;;;;2.90;1.50;;;14.70;99.90;;;;;;4903323;29;20035;-76
2022/07/02 05:19:33;;;;;;;5.00;1.42;;;14.70;99.90;;;;;;4917091;29;20051;-74
2022/07/02 05:21:59;;;;;;;3.45;1.35;;;14.90;99.90;;;;;;4916960;29;20028;-75
2022/07/02 05:24:24;;;;;;;7.82;1.40;;;14.90;99.90;;;;;;4906289;29;20024;-75
2022/07/02 05:26:50;;;;;;;4.20;1.27;;;15.00;99.90;;;;;;4898033;29;20105;-75
2022/07/02 05:29:16;;;;;;;2.65;1.40;;;15.10;99.90;;;;;;4899267;29;20241;-75
2022/07/02 05:31:41;;;;;;;3.63;1.30;;;15.00;99.90;;;;;;4898241;29;20092;-75
2022/07/02 05:34:07;;;;;;;4.88;1.85;;;15.00;99.90;;;;;;4897159;29;20107;-75
2022/07/02 05:36:33;;;;;;;2.97;1.38;;;15.10;99.90;;;;;;4898530;29;20021;-75
2022/07/02 05:38:58;;;;;;;2.83;1.50;;;15.10;99.90;;;;;;4898032;29;20032;-75
2022/07/02 05:41:24;;;;;;;4.53;1.55;;;15.10;99.90;;;;;;4897756;29;20035;-75
2022/07/02 05:43:50;;;;;;;6.85;1.52;;;15.20;99.90;;;;;;4897185;29;20582;-74
2022/07/02 05:46:15;;;;;;;1.58;1.08;;;15.30;99.90;;;;;;4896574;29;20115;-75
2022/07/02 05:48:41;;;;;;;3.05;1.50;;;15.40;99.90;;;;;;4898198;29;20028;-75
2022/07/02 05:51:07;;;;;;;3.13;1.23;;;15.50;99.90;;;;;;4897695;29;20028;-75
2022/07/02 05:53:32;;;;;;;8.48;1.50;;;15.50;99.90;;;;;;4897461;29;20408;-75
2022/07/02 05:55:58;;;;;;;4.18;1.60;;;15.50;99.90;;;;;;4897603;29;20032;-75
2022/07/02 05:58:24;;;;;;;5.13;1.50;;;15.50;99.90;;;;;;4897928;29;20149;-75
2022/07/02 06:00:49;;;;;;;6.63;1.48;;;15.50;99.90;;;;;;4897634;29;20116;-75
2022/07/02 06:03:15;;;;;;;3.13;1.23;;;15.60;99.90;;;;;;4897610;29;20061;-75
2022/07/02 06:08:25;;;;;;;3.30;1.38;;;15.80;99.90;;;;;;4897429;29;20023;-75
2022/07/02 06:10:52;;;;;;;2.40;1.10;;;15.80;99.90;;;;;;4896651;29;20056;-75
2022/07/02 06:13:18;;;;;;;5.28;1.27;;;15.80;99.90;;;;;;4896627;29;20041;-75
2022/07/02 06:15:44;;;;;;;3.05;1.00;;;15.90;99.90;;;;;;4897080;29;20033;-75
2022/07/02 06:18:12;;;;;;;1.77;0.90;;;16.00;99.90;;;;;;4896768;29;20033;-74
2022/07/02 06:20:38;;;;;;;5.95;1.27;;;16.10;99.90;;;;;;4897387;29;20505;-74
2022/07/02 06:23:03;;;;;;;9.05;1.40;;;16.20;99.90;;;;;;4894992;29;20406;-75
2022/07/02 06:25:29;;;;;;;5.50;1.48;;;16.20;99.90;;;;;;4897652;29;20028;-74
2022/07/02 06:27:55;;;;;;;10.50;1.77;;;16.30;99.90;;;;;;4896250;29;20108;-74
2022/07/02 06:30:23;;;;;;;6.10;1.48;;;16.30;99.90;;;;;;4897586;29;20054;-75
2022/07/02 06:32:49;;;;;;;4.05;1.63;;;16.30;99.90;;;;;;4896936;29;20056;-75
2022/07/02 06:35:15;;;;;;;4.53;1.00;;;16.40;99.90;;;;;;4896813;29;20473;-75
2022/07/02 06:37:41;;;;;;;5.40;1.45;;;16.40;99.90;;;;;;4896635;29;20033;-75
2022/07/02 06:40:07;;;;;;;5.70;1.60;;;16.50;99.90;;;;;;4896774;29;20393;-75
2022/07/02 06:42:34;;;;;;;6.03;1.10;;;16.50;99.90;;;;;;4896980;29;20036;-73
2022/07/02 06:44:59;;;;;;;2.08;0.80;;;16.50;99.90;;;;;;4896793;29;20472;-76
2022/07/02 06:47:26;;;;;;;6.70;1.40;;;16.60;99.90;;;;;;4897006;29;20067;-75
2022/07/02 06:49:55;;;;;;;4.68;1.17;;;16.70;99.90;;;;;;4895496;29;20081;-74
2022/07/02 06:52:21;;;;;;;6.25;2.00;;;16.80;99.90;;;;;;4896170;29;20025;-75
2022/07/02 06:54:47;;;;;;;6.70;1.77;;;16.90;99.90;;;;;;4896835;29;20032;-75
2022/07/02 06:57:12;;;;;;;4.50;1.45;;;16.90;99.90;;;;;;4896300;29;20089;-75
2022/07/02 06:59:38;;;;;;;2.40;1.35;;;17.00;99.90;;;;;;4896736;29;20040;-75
2022/07/02 07:02:05;;;;;;;5.97;1.73;;;17.00;99.90;;;;;;4895409;29;20033;-74
2022/07/02 07:04:32;;;;;;;4.22;1.50;;;17.00;99.90;;;;;;4897801;29;20024;-77
2022/07/02 07:07:00;;;;;;;7.43;1.60;;;17.00;99.90;;;;;;4896991;29;20474;-77
2022/07/02 07:09:27;;;;;;;4.03;1.50;;;17.10;99.90;;;;;;4897099;29;20112;-76
2022/07/02 07:11:54;;;;;;;2.97;1.70;;;17.10;99.90;;;;;;4895904;29;20155;-75
2022/07/02 07:14:20;;;;;;;3.13;1.23;;;17.20;99.90;;;;;;4896989;29;20508;-75
2022/07/02 07:16:46;;;;;;;4.38;1.50;;;17.30;99.90;;;;;;4896784;29;20089;-75
2022/07/02 07:19:12;;;;;;;3.70;1.60;;;17.30;99.90;;;;;;4896000;29;20431;-75
2022/07/02 07:21:41;;;;;;;4.75;1.05;;;17.40;99.90;;;;;;4896796;29;20484;-75
2022/07/02 07:24:08;;;;;;;3.65;1.83;;;17.40;99.90;;;;;;4896430;29;20478;-75
2022/07/02 07:26:35;;;;;;;3.50;1.35;;;17.50;99.90;;;;;;4896747;29;20024;-75
2022/07/02 07:29:01;;;;;;;4.40;1.30;;;17.60;99.90;;;;;;4896380;29;20036;-75
2022/07/02 07:31:27;;;;;;;8.25;1.35;;;17.70;99.90;;;;;;4896715;29;20104;-75
2022/07/02 07:33:54;;;;;;;3.20;1.10;;;17.70;99.90;;;;;;4896689;29;20028;-75
2022/07/02 07:36:21;;;;;;;5.60;1.20;;;17.80;99.90;;;;;;4896323;29;20108;-75
2022/07/02 07:38:49;;;;;;;2.67;0.80;;;17.80;99.70;;;;;;4896650;29;20167;-75
2022/07/02 07:41:15;;;;;;;4.00;1.10;;;17.90;99.10;;;;;;4899823;29;20112;-74
2022/07/02 07:43:41;;;;;;;4.68;1.15;;;18.00;98.90;;;;;;4900231;29;20070;-75
2022/07/02 07:46:07;;;;;;;2.80;0.98;;;18.10;99.40;;;;;;4899565;29;20024;-75
2022/07/02 07:48:33;;;;;;;2.75;0.80;;;18.20;99.10;;;;;;4900459;29;20109;-75
2022/07/02 07:50:59;;;;;;;6.15;0.98;;;18.20;99.00;;;;;;4898431;29;20047;-76
2022/07/02 07:53:25;;;;;;;2.13;0.98;;;18.30;97.90;;;;;;4899634;29;20055;-75
2022/07/02 07:55:51;;;;;;;6.20;1.30;;;18.30;97.50;;;;;;4899898;29;20060;-74
2022/07/02 07:58:17;;;;;;;2.92;1.20;;;18.40;97.50;;;;;;4899750;29;20489;-75
2022/07/02 08:00:43;;;;;;;4.22;0.90;;;18.60;97.80;;;;;;4899813;29;20038;-75
2022/07/02 08:03:09;;;;;;;1.88;1.08;;;18.60;97.50;;;;;;4899407;29;20104;-75
2022/07/02 08:05:36;;;;;;;4.55;1.20;;;18.60;97.40;;;;;;4899358;29;20025;-75
2022/07/02 08:08:01;;;;;;;5.28;1.23;;;18.60;96.90;;;;;;4899651;29;20033;-75
2022/07/02 08:10:27;;;;;;;8.27;1.17;;;18.70;97.10;;;;;;4899684;29;20508;-75
2022/07/02 08:12:53;;;;;;;4.22;1.20;;;18.80;97.20;;;;;;4899573;29;20036;-75
2022/07/02 08:15:19;;;;;;;4.65;0.90;;;18.90;96.70;;;;;;4899121;29;20540;-75
2022/07/02 08:17:45;;;;;;;6.30;1.33;;;19.10;96.30;;;;;;4899765;29;20036;-76
2022/07/02 08:20:11;;;;;;;9.32;1.13;;;19.20;96.20;;;;;;4898687;29;20025;-75
2022/07/02 08:22:37;;;;;;;3.80;0.90;;;19.30;96.00;;;;;;4899515;29;20028;-76
2022/07/02 08:25:04;;;;;;;3.17;0.70;;;19.80;94.90;;;;;;4899565;29;20076;-75
2022/07/02 08:27:30;;;;;;;4.47;1.02;;;20.10;94.20;;;;;;4899208;29;20049;-75
2022/07/02 08:29:55;;;;;;;2.28;1.00;;;20.50;93.30;;;;;;4898016;29;20029;-76
2022/07/02 08:32:21;;;;;;;3.20;1.05;;;20.70;94.20;;;;;;4899364;29;20035;-75
2022/07/02 08:34:47;;;;;;;2.15;1.00;;;20.80;92.90;;;;;;4898964;29;20109;-75
2022/07/02 08:37:14;;;;;;;3.90;1.10;;;21.10;93.60;;;;;;4898935;29;20033;-76
2022/07/02 08:39:40;;;;;;;3.95;0.80;;;21.40;92.90;;;;;;4899087;29;20021;-76
2022/07/02 08:42:08;;;;;;;3.33;1.33;;;21.70;92.40;;;;;;4898932;29;20028;-76
2022/07/02 08:44:35;;;;;;;6.25;1.10;;;21.90;91.20;;;;;;4899431;29;20500;-76
2022/07/02 08:47:03;;;;;;;3.85;1.20;;;22.20;90.90;;;;;;4898779;29;20028;-76
2022/07/02 08:49:31;;;;;;;5.22;1.20;;;22.40;89.90;;;;;;4898562;29;20068;-76
2022/07/02 08:54:27;;;;;;;1.58;0.98;;;23.00;88.70;;;;;;4898707;29;20562;-76
2022/07/02 08:56:56;;;;;;;2.35;0.70;;;23.20;87.10;;;;;;4899209;29;20401;-76
2022/07/02 08:59:22;;;;;;;3.42;0.93;;;23.50;88.20;;;;;;4898592;29;20024;-76
2022/07/02 09:01:48;;;;;;;2.90;0.90;;;23.70;84.10;;;;;;4898294;29;20400;-76
2022/07/02 09:04:18;;;;;;;1.90;1.00;;;23.90;83.50;;;;;;4898295;29;20031;-76
2022/07/02 09:06:46;;;;;;;3.38;0.80;;;24.10;83.60;;;;;;4898680;29;20036;-76
2022/07/02 09:09:12;;;;;;;2.88;0.90;;;24.00;80.90;;;;;;4898627;29;20104;-76
2022/07/02 09:11:38;;;;;;;2.22;1.10;;;24.10;81.00;;;;;;4898127;29;20131;-76
2022/07/02 09:14:06;;;;;;;2.95;0.80;;;24.50;79.10;;;;;;4898395;29;20067;-76
2022/07/02 09:16:33;;;;;;;1.52;0.80;;;24.70;77.20;;;;;;4898543;29;20047;-76
2022/07/02 09:18:59;;;;;;;10.63;1.17;;;24.80;75.60;;;;;;4898287;29;20025;-75
2022/07/02 09:21:25;;;;;;;4.80;1.15;;;25.00;77.10;;;;;;4898055;29;20096;-77
2022/07/02 09:23:51;;;;;;;3.47;0.85;;;24.90;73.30;;;;;;4898192;29;20045;-77
2022/07/02 09:26:21;;;;;;;1.88;0.60;;;25.20;76.10;;;;;;4898248;29;20033;-76
2022/07/02 09:29:00;;;;;;;4.47;0.98;;;25.30;71.50;;;;;;4898450;29;20035;-77
2022/07/02 09:31:29;;;;;;;1.95;0.68;;;25.30;72.10;;;;;;4897866;29;20452;-77
2022/07/02 09:33:56;;;;;;;1.92;0.70;;;25.10;71.20;;;;;;4898279;29;20035;-75
2022/07/02 09:36:23;;;;;;;4.88;0.90;;;25.50;74.60;;;;;;4897730;29;20031;-77
2022/07/02 09:38:50;;;;;;;1.52;0.70;;;25.50;71.90;;;;;;4898029;29;20029;-76
2022/07/02 09:41:21;;;;;;;2.63;0.75;;;25.90;71.50;;;;;;4897747;29;20056;-79
2022/07/02 09:44:00;;;;;;;2.47;0.97;;;26.30;72.60;;;;;;4897849;29;20027;-76
2022/07/02 09:46:26;;;;;;;2.80;0.77;;;26.30;71.80;;;;;;4896748;29;20501;-75
2022/07/02 09:48:52;;;;;;;2.60;0.90;;;26.50;71.90;;;;;;4909581;29;20548;-75
2022/07/02 09:51:19;;;;;;;1.48;0.82;;;26.70;69.30;;;;;;4914606;29;20032;-75
2022/07/02 09:53:53;;;;;;;2.83;0.85;;;26.50;69.70;;;;;;4900596;29;20377;-76
2022/07/02 09:56:24;;;;;;;3.78;0.90;;;26.90;70.00;;;;;;4898376;29;20397;-74
2022/07/02 09:58:50;;;;;;;2.77;0.80;;;27.20;70.20;;;;;;4898186;29;20032;-76
2022/07/02 10:01:23;;;;;;;5.05;0.90;;;27.40;69.20;;;;;;4897472;29;20511;-77
2022/07/02 10:03:52;;;;;;;4.32;1.05;;;27.20;65.90;;;;;;4897310;29;20107;-77
2022/07/02 10:06:18;;;;;;;2.47;0.88;;;27.10;68.70;;;;;;4897941;29;20029;-76
2022/07/02 10:08:44;;;;;;;1.30;0.70;;;27.30;67.50;;;;;;4898200;29;20080;-78
2022/07/02 10:11:12;;;;;;;2.65;1.00;;;27.20;65.80;;;;;;4897228;29;20420;-79
2022/07/02 10:13:39;;;;;;;1.55;0.75;;;27.30;69.00;;;;;;4897612;29;20025;-75
2022/07/02 10:16:11;;;;;;;2.53;0.75;;;27.50;66.60;;;;;;4897621;29;20037;-76
2022/07/02 10:18:40;;;;;;;2.85;0.70;;;27.70;65.20;;;;;;4897453;29;20081;-77
2022/07/02 10:21:07;;;;;;;2.67;1.02;;;27.50;68.10;;;;;;4896449;29;20028;-76
2022/07/02 10:23:34;;;;;;;3.40;0.82;;;27.50;66.80;;;;;;4897030;29;20115;-75
2022/07/02 10:26:00;;;;;;;2.22;0.80;;;27.90;67.50;;;;;;4897277;29;20085;-75
2022/07/02 10:28:26;;;;;;;2.78;0.70;;;28.30;65.80;;;;;;4897456;29;20024;-76
2022/07/02 10:30:56;;;;;;;5.07;0.73;;;28.20;63.60;;;;;;4897115;29;20083;-78
2022/07/02 10:33:28;;;;;;;1.23;0.63;;;28.10;62.80;;;;;;4897416;29;20561;-76
2022/07/02 10:35:57;;;;;;;2.13;0.60;;;28.30;64.50;;;;;;4897743;29;20041;-76
2022/07/02 10:38:34;;;;;;;2.95;0.80;;;28.20;63.60;;;;;;4897302;29;20089;-75
2022/07/02 10:41:00;;;;;;;2.95;1.05;;;28.60;63.00;;;;;;4897794;29;20029;-77
2022/07/02 10:43:30;;;;;;;2.38;0.80;;;28.30;61.70;;;;;;4897005;29;20506;-76
2022/07/02 10:46:07;;;;;;;2.78;1.05;;;28.70;64.00;;;;;;4897375;29;20024;-76
2022/07/02 10:48:53;;;;;;;6.38;2.35;;;28.70;63.50;;;;;;4897538;29;20032;-76
2022/07/02 10:51:28;;;;;;;2.00;0.90;;;28.80;62.70;;;;;;4897586;29;20071;-79
2022/07/02 10:54:05;;;;;;;1.88;0.70;;;29.00;59.60;;;;;;4897660;29;20414;-78
2022/07/02 10:56:43;;;;;;;2.15;0.90;;;29.20;62.10;;;;;;4896875;29;20056;-75
2022/07/02 10:59:44;;;;;;;1.73;0.80;;;29.10;60.40;;;;;;4897368;29;20504;-75
2022/07/02 11:02:15;;;;;;;1.88;0.77;;;29.20;63.00;;;;;;4895244;29;20039;-76
2022/07/02 11:04:41;;;;;;;4.57;0.90;;;29.50;60.60;;;;;;4895476;29;20556;-76
2022/07/02 11:07:13;;;;;;;2.65;0.68;;;29.10;58.70;;;;;;4879302;29;20048;-76
2022/07/02 11:09:45;;;;;;;2.75;0.73;;;28.70;58.90;;;;;;4895447;29;20041;-76
2022/07/02 11:12:14;;;;;;;2.08;0.60;;;29.10;60.60;;;;;;4894953;29;20143;-76
2022/07/02 11:14:54;;;;;;;4.38;1.00;;;29.50;59.80;;;;;;4896464;29;20041;-76
2022/07/02 11:17:23;;;;;;;1.30;0.60;;;29.50;58.00;;;;;;4898978;29;20132;-76
2022/07/02 11:19:58;;;;;;;1.23;0.70;;;29.70;58.10;;;;;;4898793;29;20502;-76
2022/07/02 11:22:30;;;;;;;1.05;0.70;;;29.90;58.00;;;;;;4898717;29;20112;-76
2022/07/02 11:24:56;;;;;;;2.47;0.70;;;29.90;58.50;;;;;;4896763;29;20077;-77
2022/07/02 11:27:22;;;;;;;1.35;0.60;;;29.80;56.50;;;;;;4896712;29;20029;-76
2022/07/02 11:29:54;;;;;;;1.75;0.75;;;29.50;58.70;;;;;;4896941;29;20591;-76
2022/07/02 11:32:21;;;;;;;3.63;0.90;;;29.50;57.80;;;;;;4898112;29;20092;-77
2022/07/02 11:34:57;;;;;;;5.22;0.70;;;29.80;56.70;;;;;;4900211;29;20076;-76
2022/07/02 11:37:22;;;;;;;2.67;0.70;;;29.80;58.30;;;;;;4905329;29;20037;-76
2022/07/02 11:39:48;;;;;;;5.35;1.10;;;30.10;56.40;;;;;;4898580;29;20032;-76
2022/07/02 11:42:14;;;;;;;5.10;1.13;;;29.90;56.90;;;;;;4900500;29;20060;-76
2022/07/02 11:44:39;;;;;;;3.47;1.00;;;30.00;57.30;;;;;;4898545;29;20124;-76
2022/07/02 11:47:05;;;;;;;4.28;1.25;;;29.90;56.20;;;;;;4904057;29;20102;-76
2022/07/02 11:49:38;;;;;;;2.75;0.80;;;29.90;58.10;;;;;;4900782;29;20065;-76
2022/07/02 11:52:06;;;;;;;3.50;1.05;;;29.90;55.90;;;;;;4900009;29;20362;-76
2022/07/02 11:54:32;;;;;;;6.47;1.25;;;30.30;57.20;;;;;;4890851;29;20104;-76
2022/07/02 11:56:57;;;;;;;3.17;0.95;;;30.30;58.60;;;;;;4899336;29;20111;-76
2022/07/02 11:59:25;;;;;;;6.57;0.70;;;30.50;56.90;;;;;;4899691;29;20461;-76
2022/07/02 12:01:52;;;;;;;4.25;1.20;;;30.10;55.60;;;;;;4900574;29;20541;-76
2022/07/02 12:04:20;;;;;;;4.80;1.10;;;30.20;56.20;;;;;;4899129;29;20031;-76
2022/07/02 12:06:48;;;;;;;3.60;0.80;;;30.70;58.40;;;;;;4905029;29;20404;-76
2022/07/02 12:09:15;;;;;;;1.65;0.60;;;30.70;56.60;;;;;;4899713;29;20112;-76
2022/07/02 12:11:47;;;;;;;4.22;0.85;;;30.90;56.30;;;;;;4902694;29;20055;-76
2022/07/02 12:14:14;;;;;;;1.60;0.70;;;30.70;56.50;;;;;;4899056;29;20024;-75
2022/07/02 12:16:41;;;;;;;3.70;0.80;;;30.50;54.10;;;;;;4898195;29;20045;-76
2022/07/02 12:19:09;;;;;;;2.63;0.93;;;30.70;56.50;;;;;;4901796;29;20024;-76
2022/07/02 12:21:45;;;;;;;5.45;1.02;;;30.90;53.90;;;;;;4898725;29;20033;-76
2022/07/02 12:24:30;;;;;;;1.58;0.90;;;30.70;55.00;;;;;;4895741;29;20107;-76
2022/07/02 12:27:02;;;;;;;1.52;0.80;;;30.70;54.80;;;;;;4895177;29;20032;-76
2022/07/02 12:32:26;;;;;;;2.28;0.80;;;30.80;53.90;;;;;;4897700;29;20153;-76
2022/07/02 12:35:11;;;;;;;1.23;0.65;;;30.50;53.40;;;;;;4898399;29;20029;-76
2022/07/02 12:37:39;;;;;;;1.02;0.60;;;30.80;53.20;;;;;;4902373;29;20027;-76
2022/07/02 12:40:10;;;;;;;1.20;0.65;;;30.90;55.40;;;;;;4898128;29;20029;-76
2022/07/02 12:42:57;;;;;;;1.95;0.77;;;30.60;53.30;;;;;;4898276;29;20020;-76
2022/07/02 12:45:31;;;;;;;0.98;0.52;;;30.50;54.90;;;;;;4897738;29;20065;-75
2022/07/02 12:47:58;;;;;;;2.88;0.90;;;30.80;53.90;;;;;;4898562;29;20039;-76
2022/07/02 12:50:24;;;;;;;2.10;0.80;;;31.20;54.50;;;;;;4898541;29;20051;-76
2022/07/02 12:52:52;;;;;;;3.80;0.80;;;31.20;54.60;;;;;;4898686;29;20029;-76
2022/07/02 12:55:26;;;;;;;3.15;1.00;;;31.00;54.60;;;;;;4898779;29;20043;-76
2022/07/02 12:57:57;;;;;;;1.58;0.70;;;31.10;54.20;;;;;;4897742;29;20032;-76